Time;durP1;ratioP1;P1;durP2;ratioP2;P2;SDS_P1;SDS_P2;PMS_P1;PMS_P2;Temp;Humidity;BMP_temperature;BMP_pressure;BME280_temperature;BME280_humidity;BME280_pressure;Samples;Min_cycle;Max_cycle;Signal;HPM_P1;HPM_P2
2022/08/03 00:01:51;;;;;;;1.60;1.50;;;;;;;20.08;64.46;98204.75;5024564;28;20068;-84
2022/08/03 00:04:18;;;;;;;1.80;1.70;;;;;;;20.14;63.99;98215.16;5024526;28;20037;-84
2022/08/03 00:06:45;;;;;;;1.52;1.42;;;;;;;20.24;63.89;98207.22;5027071;28;20111;-84
2022/08/03 00:09:11;;;;;;;1.88;1.58;;;;;;;20.33;62.98;98220.84;5022769;28;20042;-84
2022/08/03 00:11:38;;;;;;;1.63;1.42;;;;;;;20.41;62.70;98203.59;5026179;28;20038;-84
2022/08/03 00:14:06;;;;;;;1.98;1.88;;;;;;;20.13;62.14;98207.44;5024497;28;20496;-84
2022/08/03 00:16:33;;;;;;;2.58;2.38;;;;;;;20.00;62.63;98209.50;5005935;28;20042;-84
2022/08/03 00:19:01;;;;;;;2.20;2.00;;;;;;;19.98;63.17;98208.97;5020893;28;20440;-84
2022/08/03 00:21:29;;;;;;;2.63;1.90;;;;;;;19.93;63.22;98218.78;5023378;28;20056;-84
2022/08/03 00:23:55;;;;;;;2.13;1.92;;;;;;;19.76;64.25;98216.28;5023255;28;20546;-84
2022/08/03 00:26:22;;;;;;;2.20;2.00;;;;;;;19.57;64.94;98223.81;4996486;28;20037;-84
2022/08/03 00:28:49;;;;;;;2.50;2.30;;;;;;;19.44;64.72;98219.75;5024907;28;20075;-84
2022/08/03 00:31:16;;;;;;;2.35;2.15;;;;;;;19.56;65.31;98229.41;5024206;28;20033;-84
2022/08/03 00:34:03;;;;;;;2.22;1.80;;;;;;;19.69;64.98;98226.34;4999700;28;20092;-84
2022/08/03 00:36:31;;;;;;;2.00;1.90;;;;;;;19.68;64.14;98225.53;5025615;28;20034;-84
2022/08/03 00:38:58;;;;;;;2.30;2.10;;;;;;;19.52;64.43;98223.78;5024411;28;20452;-83
2022/08/03 00:41:25;;;;;;;2.47;2.30;;;;;;;19.41;65.65;98224.75;5027244;28;20095;-84
2022/08/03 00:43:51;;;;;;;2.03;1.92;;;;;;;19.25;66.12;98221.16;5025424;28;20045;-84
2022/08/03 00:46:21;;;;;;;2.47;2.28;;;;;;;19.19;65.88;98216.84;5021803;28;21014;-84
2022/08/03 00:48:49;;;;;;;2.53;2.33;;;;;;;19.21;66.05;98231.50;5016935;28;20135;-83
2022/08/03 00:51:19;;;;;;;1.73;1.63;;;;;;;19.30;65.86;98223.84;5023549;28;20072;-83
2022/08/03 00:53:46;;;;;;;1.90;1.80;;;;;;;19.33;65.72;98223.38;5024498;28;20508;-84
2022/08/03 00:56:15;;;;;;;2.30;1.85;;;;;;;19.35;65.74;98234.53;5023485;28;20053;-84
2022/08/03 00:58:45;;;;;;;1.83;1.73;;;;;;;19.59;66.78;98234.22;5024167;28;20444;-83
2022/08/03 01:01:13;;;;;;;1.55;1.45;;;;;;;19.73;66.46;98222.09;5020147;28;20038;-84
2022/08/03 01:03:41;;;;;;;1.58;1.48;;;;;;;19.76;66.27;98218.94;5014817;28;20046;-84
2022/08/03 01:06:24;;;;;;;1.63;1.52;;;;;;;19.81;65.34;98221.63;5024660;28;20041;-84
2022/08/03 01:09:29;;;;;;;1.75;1.65;;;;;;;19.83;63.95;98232.81;5018402;28;20046;-83
2022/08/03 01:12:28;;;;;;;1.60;1.50;;;;;;;19.73;65.19;98228.25;4992251;28;20115;-83
2022/08/03 01:15:03;;;;;;;1.95;1.73;;;;;;;19.57;65.09;98231.00;5023212;28;20543;-83
2022/08/03 01:17:48;;;;;;;1.60;1.50;;;;;;;19.61;65.64;98235.59;5027474;28;20041;-83
2022/08/03 01:20:19;;;;;;;1.70;1.60;;;;;;;19.61;66.12;98224.13;5020944;28;20386;-83
2022/08/03 01:22:52;;;;;;;1.50;1.40;;;;;;;19.75;65.89;98231.44;5023237;28;20135;-83
2022/08/03 01:25:39;;;;;;;1.83;1.50;;;;;;;19.62;63.99;98233.75;5010000;28;20068;-83
2022/08/03 01:28:57;;;;;;;2.10;1.70;;;;;;;19.23;65.03;98229.38;5002694;28;20088;-83
2022/08/03 01:31:52;;;;;;;1.70;1.60;;;;;;;19.22;66.18;98226.97;4984220;28;20259;-83
2022/08/03 01:34:58;;;;;;;1.60;1.50;;;;;;;19.38;65.30;98214.63;4997194;28;20105;-83
2022/08/03 01:37:35;;;;;;;2.22;1.90;;;;;;;19.44;64.42;98224.25;5023159;28;20420;-83
2022/08/03 01:40:07;;;;;;;2.17;1.90;;;;;;;19.06;65.08;98220.72;5020577;28;20041;-83
2022/08/03 01:42:37;;;;;;;2.30;2.20;;;;;;;18.85;65.47;98219.72;5023526;28;20057;-83
2022/08/03 01:45:07;;;;;;;1.95;1.80;;;;;;;18.80;66.06;98217.00;5013657;28;20048;-83
2022/08/03 01:47:35;;;;;;;2.00;1.90;;;;;;;18.61;66.19;98207.72;5021769;28;20052;-83
2022/08/03 01:50:06;;;;;;;1.75;1.65;;;;;;;18.66;67.41;98223.72;5008535;28;20092;-83
2022/08/03 01:52:36;;;;;;;1.92;1.77;;;;;;;18.82;67.84;98217.53;5022087;28;20128;-83
2022/08/03 01:55:06;;;;;;;1.80;1.70;;;;;;;18.68;66.52;98221.66;5022074;28;20052;-83
2022/08/03 01:57:35;;;;;;;1.70;1.60;;;;;;;18.88;66.71;98219.19;5013201;28;20041;-83
2022/08/03 02:00:24;;;;;;;1.70;1.60;;;;;;;18.71;66.83;98208.69;5020769;28;20038;-83
2022/08/03 02:02:54;;;;;;;1.80;1.70;;;;;;;18.76;67.22;98215.88;5023734;28;20041;-83
2022/08/03 02:05:23;;;;;;;1.90;1.80;;;;;;;18.82;67.97;98212.22;5019290;28;20045;-83
2022/08/03 02:07:51;;;;;;;2.00;1.80;;;;;;;18.93;67.55;98200.66;5020009;28;20390;-83
2022/08/03 02:10:21;;;;;;;2.28;2.08;;;;;;;19.07;67.89;98218.84;5022257;28;20068;-83
2022/08/03 02:13:06;;;;;;;2.00;1.90;;;;;;;19.08;67.32;98213.31;5024540;28;20037;-83
2022/08/03 02:15:35;;;;;;;2.00;1.90;;;;;;;18.88;66.76;98207.78;5028734;28;20099;-83
2022/08/03 02:18:07;;;;;;;2.03;1.83;;;;;;;18.72;67.51;98204.16;5026723;28;20120;-84
2022/08/03 02:20:37;;;;;;;1.80;1.70;;;;;;;18.74;67.02;98210.03;5014255;28;20520;-83
2022/08/03 02:23:06;;;;;;;1.92;1.77;;;;;;;18.89;67.34;98206.72;5021228;28;20033;-83
2022/08/03 02:25:43;;;;;;;1.52;1.42;;;;;;;18.91;66.82;98205.44;5028985;28;20061;-83
2022/08/03 02:28:17;;;;;;;1.83;1.50;;;;;;;18.97;66.41;98201.75;5021054;28;20103;-83
2022/08/03 02:30:49;;;;;;;1.60;1.50;;;;;;;18.97;65.68;98204.41;5011536;28;20080;-83
2022/08/03 02:33:33;;;;;;;2.08;1.98;;;;;;;18.71;66.09;98205.19;5023304;28;20493;-84
2022/08/03 02:36:01;;;;;;;2.20;2.10;;;;;;;18.33;66.67;98196.25;5028847;28;20505;-83
2022/08/03 02:38:35;;;;;;;2.65;2.20;;;;;;;18.08;67.43;98207.34;5028697;28;20041;-84
2022/08/03 02:41:11;;;;;;;2.45;2.25;;;;;;;17.82;68.16;98195.56;5026094;28;20411;-84
2022/08/03 02:43:40;;;;;;;2.22;2.03;;;;;;;17.78;69.06;98194.44;5017645;28;20508;-84
2022/08/03 02:46:37;;;;;;;2.20;2.10;;;;;;;17.57;69.71;98177.41;5028538;28;20100;-83
2022/08/03 02:49:06;;;;;;;2.20;2.00;;;;;;;17.60;70.26;98186.72;5026165;28;20053;-83
2022/08/03 02:51:55;;;;;;;1.98;1.85;;;;;;;17.75;70.06;98197.59;5026317;28;20050;-83
2022/08/03 02:54:25;;;;;;;2.28;1.90;;;;;;;17.94;70.39;98189.38;5028346;28;20049;-83
2022/08/03 02:56:56;;;;;;;2.20;2.00;;;;;;;17.91;70.46;98177.38;5024516;28;20112;-84
2022/08/03 02:59:25;;;;;;;2.20;2.00;;;;;;;18.04;70.70;98187.63;5021022;28;20102;-84
2022/08/03 03:01:53;;;;;;;2.40;2.20;;;;;;;18.14;71.00;98187.78;5023894;28;20030;-83
2022/08/03 03:04:21;;;;;;;2.67;2.10;;;;;;;18.17;70.61;98189.13;5023627;28;20473;-83
2022/08/03 03:06:54;;;;;;;2.63;2.42;;;;;;;18.28;70.23;98201.47;5027873;28;20041;-83
2022/08/03 03:09:21;;;;;;;2.17;2.00;;;;;;;18.23;70.45;98187.34;5024842;28;20041;-83
2022/08/03 03:11:50;;;;;;;2.35;2.15;;;;;;;18.27;69.53;98202.53;5024041;28;20091;-83
2022/08/03 03:14:18;;;;;;;3.10;2.05;;;;;;;17.88;70.26;98202.56;5022254;28;20320;-83
2022/08/03 03:17:01;;;;;;;2.05;1.95;;;;;;;17.94;71.07;98210.59;5023484;28;20046;-83
2022/08/03 03:19:31;;;;;;;2.42;2.22;;;;;;;18.00;71.60;98207.78;5030295;28;20095;-84
2022/08/03 03:22:05;;;;;;;2.40;2.20;;;;;;;18.01;70.34;98201.41;5024037;28;20064;-84
2022/08/03 03:24:35;;;;;;;2.50;2.30;;;;;;;18.10;70.52;98201.78;5024799;28;20042;-84
2022/08/03 03:27:03;;;;;;;2.22;2.08;;;;;;;18.13;70.55;98198.66;5024527;28;20501;-83
2022/08/03 03:29:33;;;;;;;2.28;2.08;;;;;;;18.22;70.01;98207.78;5022445;28;20042;-84
2022/08/03 03:32:06;;;;;;;2.70;2.50;;;;;;;18.22;69.95;98204.31;5024142;28;20063;-85
2022/08/03 03:34:36;;;;;;;2.20;2.10;;;;;;;18.29;70.19;98207.59;5021741;28;20091;-83
2022/08/03 03:37:04;;;;;;;2.30;2.10;;;;;;;18.24;69.93;98212.84;5021531;28;20041;-83
2022/08/03 03:39:31;;;;;;;2.72;2.53;;;;;;;18.21;70.32;98208.81;5024873;28;20216;-83
2022/08/03 03:41:59;;;;;;;2.20;2.10;;;;;;;18.25;70.05;98212.59;5025120;28;20495;-83
2022/08/03 03:44:30;;;;;;;2.63;2.42;;;;;;;18.13;69.61;98203.94;5026339;28;20042;-84
2022/08/03 03:46:57;;;;;;;2.70;2.38;;;;;;;18.14;69.94;98195.75;5024645;28;20104;-84
2022/08/03 03:49:25;;;;;;;2.47;2.28;;;;;;;18.21;69.74;98211.47;5026184;28;20046;-84
2022/08/03 03:51:54;;;;;;;2.33;2.10;;;;;;;18.07;69.81;98194.31;5025467;28;20116;-84
2022/08/03 03:54:21;;;;;;;2.70;2.33;;;;;;;18.18;69.68;98214.63;5024517;28;20049;-84
2022/08/03 03:56:51;;;;;;;2.60;2.40;;;;;;;18.11;69.05;98196.25;5025446;28;20049;-85
2022/08/03 03:59:18;;;;;;;2.40;2.20;;;;;;;18.19;69.11;98218.91;5027689;28;20045;-84
2022/08/03 04:01:44;;;;;;;2.55;2.35;;;;;;;18.16;69.13;98206.09;5026424;28;20034;-85
2022/08/03 04:12:42;;;;;;;2.60;2.40;;;;;;;18.08;69.81;98204.69;5019415;28;20050;-83
2022/08/03 04:15:21;;;;;;;2.80;2.60;;;;;;;18.13;70.58;98209.25;5021937;28;20049;-83
2022/08/03 04:17:55;;;;;;;2.72;2.35;;;;;;;18.12;70.75;98212.97;5023978;28;20041;-83
2022/08/03 04:20:28;;;;;;;2.45;2.25;;;;;;;18.11;70.50;98216.66;5022767;28;20340;-83
2022/08/03 04:22:59;;;;;;;2.40;2.17;;;;;;;18.12;69.93;98226.25;5022869;28;20045;-83
2022/08/03 04:25:31;;;;;;;2.80;2.60;;;;;;;18.11;69.64;98219.31;5023953;28;20037;-83
2022/08/03 04:28:01;;;;;;;2.45;2.25;;;;;;;18.10;69.61;98207.09;5024489;28;20068;-83
2022/08/03 04:30:49;;;;;;;2.25;2.08;;;;;;;18.01;68.86;98224.50;5018545;28;20065;-83
2022/08/03 04:33:19;;;;;;;2.20;2.10;;;;;;;17.70;69.94;98213.41;5010005;28;20037;-83
2022/08/03 04:35:51;;;;;;;2.65;2.28;;;;;;;17.75;71.34;98208.22;5021339;28;20033;-83
2022/08/03 04:38:31;;;;;;;2.88;2.67;;;;;;;17.90;71.39;98229.66;5017195;28;20037;-83
2022/08/03 04:41:00;;;;;;;2.42;2.22;;;;;;;17.91;71.05;98223.28;5024335;28;20087;-83
2022/08/03 04:43:33;;;;;;;2.40;2.30;;;;;;;17.98;71.14;98227.63;5024669;28;20566;-83
2022/08/03 04:46:01;;;;;;;3.15;2.88;;;;;;;17.97;70.54;98226.81;5024288;28;20106;-82
2022/08/03 04:48:29;;;;;;;2.80;2.60;;;;;;;17.96;70.33;98224.41;5026052;28;20038;-83
2022/08/03 04:50:56;;;;;;;2.55;2.20;;;;;;;17.85;71.34;98224.25;5010978;28;20064;-83
2022/08/03 04:53:23;;;;;;;2.72;2.53;;;;;;;17.92;71.30;98230.19;5027190;28;20045;-83
2022/08/03 04:55:49;;;;;;;2.65;2.45;;;;;;;17.95;71.38;98230.78;5024416;28;20103;-82
2022/08/03 04:58:16;;;;;;;2.50;2.30;;;;;;;17.96;70.91;98235.03;5027565;28;20459;-84
2022/08/03 05:00:44;;;;;;;2.40;2.20;;;;;;;17.92;71.10;98229.38;5025245;28;20522;-86
2022/08/03 05:03:11;;;;;;;2.47;2.28;;;;;;;18.00;70.67;98238.81;5025530;28;20046;-84
2022/08/03 05:05:54;;;;;;;2.30;2.10;;;;;;;17.99;70.37;98242.47;5023474;28;20060;-85
2022/08/03 05:08:36;;;;;;;2.38;2.17;;;;;;;18.01;70.19;98243.06;4997570;28;20421;-85
2022/08/03 05:11:12;;;;;;;2.50;2.30;;;;;;;17.97;70.51;98229.47;5022974;28;20046;-86
2022/08/03 05:13:39;;;;;;;2.60;2.35;;;;;;;18.03;70.20;98228.50;5023707;28;20409;-83
2022/08/03 05:16:06;;;;;;;2.40;2.20;;;;;;;18.06;70.31;98230.69;5016131;28;20045;-83
2022/08/03 05:18:32;;;;;;;2.50;2.30;;;;;;;18.08;69.44;98238.38;5020393;28;20164;-83
2022/08/03 05:20:59;;;;;;;2.17;1.88;;;;;;;18.11;70.13;98237.88;5019703;28;20038;-84
2022/08/03 05:23:26;;;;;;;2.00;1.90;;;;;;;18.26;70.04;98251.38;5019463;28;20091;-84
2022/08/03 05:25:53;;;;;;;2.03;1.92;;;;;;;18.25;69.68;98236.50;5013429;28;20038;-83
2022/08/03 05:28:19;;;;;;;2.40;2.20;;;;;;;18.35;68.87;98255.22;5020484;28;20053;-83
2022/08/03 05:30:46;;;;;;;2.25;1.70;;;;;;;18.41;68.96;98251.59;5023587;28;20480;-83
2022/08/03 05:33:13;;;;;;;1.90;1.80;;;;;;;18.56;69.17;98258.94;5021723;28;20041;-83
2022/08/03 05:35:40;;;;;;;1.60;1.50;;;;;;;18.58;69.19;98250.72;5023099;28;20041;-84
2022/08/03 05:38:27;;;;;;;1.50;1.40;;;;;;;18.73;68.21;98253.59;5012928;28;20476;-84
2022/08/03 05:41:05;;;;;;;1.60;1.50;;;;;;;18.83;67.61;98264.34;5022459;28;20084;-84
2022/08/03 05:43:53;;;;;;;1.60;1.50;;;;;;;18.94;68.72;98263.38;5023307;28;20150;-84
2022/08/03 05:46:23;;;;;;;2.03;1.80;;;;;;;19.11;67.16;98263.28;5022444;28;20100;-84
2022/08/03 05:48:50;;;;;;;1.90;1.80;;;;;;;19.20;66.00;98258.34;5024912;28;20041;-85
2022/08/03 05:51:17;;;;;;;1.67;1.58;;;;;;;19.36;66.94;98264.59;5016438;28;20049;-84
2022/08/03 05:53:44;;;;;;;1.70;1.60;;;;;;;19.51;66.90;98260.22;5010280;28;20639;-84
2022/08/03 05:56:12;;;;;;;1.73;1.63;;;;;;;19.66;66.13;98259.56;5027836;28;20041;-83
2022/08/03 05:58:45;;;;;;;1.80;1.70;;;;;;;19.74;65.59;98250.34;5026907;28;20043;-84
2022/08/03 06:01:12;;;;;;;1.70;1.60;;;;;;;19.92;63.48;98263.22;5029976;28;20088;-84
2022/08/03 06:03:39;;;;;;;1.95;1.83;;;;;;;19.97;63.25;98255.28;5027410;28;20681;-84
2022/08/03 06:06:06;;;;;;;1.98;1.88;;;;;;;19.95;63.85;98241.41;5010502;28;20477;-84
2022/08/03 06:08:34;;;;;;;1.88;1.55;;;;;;;20.16;65.27;98250.34;5024580;28;20038;-84
2022/08/03 06:11:00;;;;;;;1.92;1.80;;;;;;;20.38;64.38;98258.16;5021993;28;20083;-85
2022/08/03 06:13:28;;;;;;;2.03;1.83;;;;;;;20.56;63.63;98257.75;5027757;28;20124;-84
2022/08/03 06:15:54;;;;;;;2.00;1.90;;;;;;;20.70;61.05;98262.63;5020124;28;20049;-85
2022/08/03 06:18:23;;;;;;;1.90;1.80;;;;;;;20.74;62.77;98253.03;5020328;28;20485;-85
2022/08/03 06:20:51;;;;;;;1.98;1.88;;;;;;;20.88;60.32;98254.16;5032395;28;20053;-86
2022/08/03 06:23:18;;;;;;;2.17;1.98;;;;;;;20.90;60.00;98256.53;5014249;28;20129;-85
2022/08/03 06:25:46;;;;;;;1.95;1.85;;;;;;;21.05;60.56;98246.72;5031353;28;20048;-86
2022/08/03 06:28:13;;;;;;;2.17;2.08;;;;;;;21.28;62.64;98264.09;4996986;28;20104;-88
2022/08/03 06:31:01;;;;;;;2.00;1.90;;;;;;;21.41;59.49;98252.16;5028343;28;20076;-83
2022/08/03 06:33:28;;;;;;;2.05;1.95;;;;;;;21.49;60.67;98256.94;5012086;28;20045;-84
2022/08/03 06:36:15;;;;;;;1.85;1.75;;;;;;;21.73;58.17;98259.09;5012703;28;20515;-85
2022/08/03 06:38:41;;;;;;;2.45;1.90;;;;;;;21.83;57.65;98248.38;5027738;28;20096;-86
2022/08/03 06:41:08;;;;;;;2.30;2.10;;;;;;;22.04;60.05;98249.97;5022217;28;20038;-89
2022/08/03 06:43:36;;;;;;;2.00;1.88;;;;;;;22.00;56.39;98232.88;5030399;28;20481;-86
2022/08/03 06:46:23;;;;;;;2.00;1.90;;;;;;;22.15;56.02;98251.56;5006278;28;20046;-89
2022/08/03 06:48:52;;;;;;;2.17;2.05;;;;;;;22.28;57.34;98254.75;5027808;28;20410;-86
2022/08/03 06:51:19;;;;;;;2.08;1.90;;;;;;;22.45;57.10;98255.25;5020544;28;20061;-85
2022/08/03 06:53:45;;;;;;;2.42;2.22;;;;;;;22.49;56.96;98258.16;5023176;28;20460;-85
2022/08/03 06:56:12;;;;;;;2.30;2.17;;;;;;;22.56;54.71;98246.13;5027798;28;20052;-86
2022/08/03 06:58:39;;;;;;;2.50;2.28;;;;;;;22.78;55.61;98260.97;5027595;28;20100;-86
2022/08/03 07:01:05;;;;;;;2.10;2.00;;;;;;;22.89;54.89;98262.56;5030537;28;20041;-86
2022/08/03 07:03:32;;;;;;;2.30;2.10;;;;;;;23.15;58.07;98264.03;5020123;28;20052;-84
2022/08/03 07:06:03;;;;;;;2.30;2.10;;;;;;;23.29;56.17;98258.06;5028646;28;20456;-85
2022/08/03 07:08:29;;;;;;;2.42;2.03;;;;;;;23.38;53.64;98251.81;5028033;28;20176;-85
2022/08/03 07:11:00;;;;;;;2.05;1.95;;;;;;;23.40;53.64;98265.75;5026062;28;20124;-87
2022/08/03 07:13:27;;;;;;;2.20;2.00;;;;;;;23.60;54.83;98261.31;5021815;28;20042;-84
2022/08/03 07:15:54;;;;;;;2.30;2.10;;;;;;;23.70;54.48;98264.72;5032440;28;20123;-85
2022/08/03 07:18:22;;;;;;;2.00;1.90;;;;;;;23.82;54.41;98260.88;5032264;28;20038;-84
2022/08/03 07:20:56;;;;;;;2.13;2.00;;;;;;;23.82;52.81;98255.53;5031139;28;20497;-84
2022/08/03 07:23:26;;;;;;;2.30;2.10;;;;;;;23.98;55.47;98265.00;5022077;28;20045;-90
2022/08/03 07:25:52;;;;;;;2.20;2.10;;;;;;;24.10;52.91;98256.59;5001272;28;20054;-88
2022/08/03 07:28:22;;;;;;;2.33;2.13;;;;;;;24.21;53.83;98258.88;5022017;28;20041;-90
2022/08/03 07:30:48;;;;;;;2.50;2.30;;;;;;;24.31;51.73;98257.97;5020252;28;20567;-88
2022/08/03 07:33:15;;;;;;;2.53;2.30;;;;;;;24.37;53.82;98256.88;5026079;28;20041;-86
2022/08/03 07:35:44;;;;;;;2.60;2.40;;;;;;;24.51;52.49;98256.97;5028148;28;20049;-88
2022/08/03 07:38:11;;;;;;;2.67;2.45;;;;;;;24.50;51.82;98247.34;5033207;28;20041;-90
2022/08/03 07:40:38;;;;;;;2.80;2.42;;;;;;;24.73;52.81;98253.78;5016298;28;20050;-89
2022/08/03 07:43:11;;;;;;;2.20;2.10;;;;;;;24.93;53.12;98258.84;5006116;28;20042;-87
2022/08/03 07:45:40;;;;;;;2.65;2.35;;;;;;;25.00;53.14;98258.50;5029676;28;20103;-90
2022/08/03 07:48:07;;;;;;;2.33;2.13;;;;;;;24.97;49.98;98251.03;5005968;28;20489;-88
2022/08/03 07:50:38;;;;;;;2.47;2.28;;;;;;;25.11;51.39;98251.94;5026810;28;20049;-89
2022/08/03 07:53:07;;;;;;;2.55;2.35;;;;;;;25.31;51.18;98253.53;5030534;28;20439;-89
2022/08/03 07:55:39;;;;;;;2.45;2.35;;;;;;;25.30;49.71;98241.97;5030991;28;20056;-89
2022/08/03 07:58:14;;;;;;;2.30;2.20;;;;;;;25.51;51.51;98241.69;5021552;28;20050;-84
2022/08/03 08:00:52;;;;;;;2.80;2.60;;;;;;;25.63;50.48;98240.13;5013897;28;20045;-86
2022/08/03 08:03:20;;;;;;;2.60;2.40;;;;;;;25.72;49.91;98248.28;5014451;28;20048;-91
2022/08/03 08:05:48;;;;;;;2.55;2.35;;;;;;;25.77;48.80;98237.50;5003693;28;20124;-90
2022/08/03 08:08:15;;;;;;;2.55;2.35;;;;;;;25.87;50.41;98245.38;5030811;28;20041;-86
2022/08/03 08:10:45;;;;;;;2.50;2.30;;;;;;;26.04;50.57;98236.75;5013648;28;20049;-89
2022/08/03 08:13:24;;;;;;;2.67;2.47;;;;;;;26.17;47.83;98237.06;5044925;28;20053;-88
2022/08/03 08:15:53;;;;;;;2.60;2.40;;;;;;;26.25;47.66;98236.38;5027951;28;20048;-88
2022/08/03 08:18:20;;;;;;;2.55;2.35;;;;;;;26.35;49.52;98231.59;5012998;28;20042;-91
2022/08/03 08:20:47;;;;;;;2.50;2.30;;;;;;;26.55;47.19;98226.94;5016310;28;20251;-85
2022/08/03 08:23:14;;;;;;;2.50;2.30;;;;;;;26.61;47.63;98231.09;5010877;28;20091;-87
2022/08/03 08:26:01;;;;;;;2.60;2.40;;;;;;;26.77;48.84;98234.28;5019893;28;20038;-84
2022/08/03 08:28:27;;;;;;;2.60;2.40;;;;;;;26.85;46.05;98231.66;5025080;28;20279;-88
2022/08/03 08:31:06;;;;;;;2.63;2.10;;;;;;;27.01;47.37;98221.38;5022339;28;20496;-86
2022/08/03 08:33:34;;;;;;;2.60;2.40;;;;;;;27.10;46.42;98210.69;5009013;28;20492;-85
2022/08/03 08:36:24;;;;;;;2.75;2.55;;;;;;;27.20;43.63;98227.41;5021238;28;20555;-86
2022/08/03 08:38:56;;;;;;;2.45;2.28;;;;;;;27.43;46.83;98230.91;5004630;28;20527;-87
2022/08/03 08:41:27;;;;;;;2.40;2.30;;;;;;;27.43;44.72;98219.34;5022997;28;20440;-85
2022/08/03 08:43:58;;;;;;;2.47;2.28;;;;;;;27.49;46.38;98223.50;5024339;28;20049;-87
2022/08/03 08:46:28;;;;;;;2.90;2.60;;;;;;;27.50;45.74;98222.41;5028134;28;20041;-86
2022/08/03 08:48:58;;;;;;;2.80;2.60;;;;;;;27.58;44.83;98216.25;5027553;28;20634;-88
2022/08/03 08:51:36;;;;;;;2.50;2.30;;;;;;;27.76;43.19;98227.16;5018037;28;20058;-85
2022/08/03 08:54:25;;;;;;;2.33;2.13;;;;;;;27.88;44.13;98222.78;5013842;28;20049;-86
2022/08/03 08:56:55;;;;;;;2.40;2.20;;;;;;;27.97;42.63;98229.03;5022617;28;20041;-87
2022/08/03 08:59:26;;;;;;;2.63;2.45;;;;;;;28.10;44.19;98218.47;5012277;28;20139;-88
2022/08/03 09:02:13;;;;;;;2.60;2.40;;;;;;;28.08;43.34;98213.38;5026612;28;20344;-87
2022/08/03 09:04:41;;;;;;;2.70;2.50;;;;;;;28.26;43.14;98219.66;5025328;28;20048;-86
2022/08/03 09:07:08;;;;;;;2.72;2.53;;;;;;;28.43;44.14;98211.63;5021821;28;20540;-88
2022/08/03 09:09:47;;;;;;;2.60;2.40;;;;;;;28.53;42.60;98224.03;5016054;28;20085;-85
2022/08/03 09:12:46;;;;;;;2.20;2.10;;;;;;;28.75;43.03;98221.22;5023465;28;20061;-86
2022/08/03 09:15:31;;;;;;;2.22;2.10;;;;;;;28.94;41.77;98210.16;5021197;28;20042;-87
2022/08/03 09:18:01;;;;;;;2.53;2.33;;;;;;;28.96;41.79;98205.22;5021139;28;20052;-90
2022/08/03 09:20:33;;;;;;;2.17;2.07;;;;;;;28.97;40.81;98198.72;5006195;28;20137;-86
2022/08/03 09:23:09;;;;;;;2.60;2.40;;;;;;;29.12;42.62;98208.25;5021023;28;20596;-86
2022/08/03 09:25:58;;;;;;;3.33;2.63;;;;;;;29.09;41.72;98198.09;5002169;28;20514;-86
2022/08/03 09:28:34;;;;;;;2.03;1.92;;;;;;;29.27;40.07;98210.47;5015400;28;20108;-90
2022/08/03 09:31:48;;;;;;;2.20;2.00;;;;;;;29.41;40.10;98199.47;5040738;28;20042;-87
2022/08/03 09:34:16;;;;;;;3.05;2.35;;;;;;;29.22;38.84;98185.53;5025582;28;20084;-87
2022/08/03 09:36:50;;;;;;;2.50;2.30;;;;;;;29.40;38.70;98203.31;5021424;28;20206;-88
2022/08/03 09:39:26;;;;;;;2.10;2.00;;;;;;;29.39;38.95;98190.91;4996306;28;21003;-89
2022/08/03 09:42:18;;;;;;;2.42;2.13;;;;;;;29.43;37.57;98210.75;5023766;28;20037;-89
2022/08/03 09:44:52;;;;;;;2.05;1.95;;;;;;;29.41;37.69;98204.09;5009849;28;20041;-87
2022/08/03 09:47:38;;;;;;;1.88;1.77;;;;;;;29.52;38.36;98202.69;5023605;28;20092;-85
2022/08/03 09:50:11;;;;;;;2.00;1.90;;;;;;;29.54;37.05;98203.94;5021985;28;20045;-85
2022/08/03 09:52:40;;;;;;;2.55;1.90;;;;;;;29.64;38.76;98196.63;5007272;28;20050;-86
2022/08/03 09:55:23;;;;;;;2.20;2.00;;;;;;;29.51;35.22;98182.94;5023264;28;20045;-87
2022/08/03 09:58:10;;;;;;;2.00;1.90;;;;;;;29.60;36.90;98191.03;5013799;28;20042;-88
2022/08/03 10:01:06;;;;;;;2.80;1.98;;;;;;;29.74;36.43;98194.34;5006209;28;20042;-88
2022/08/03 10:03:58;;;;;;;2.20;2.00;;;;;;;29.97;35.82;98194.91;5015395;28;20041;-86
2022/08/03 10:06:31;;;;;;;1.80;1.70;;;;;;;30.21;35.12;98193.56;5018760;28;20038;-86
2022/08/03 10:09:15;;;;;;;1.50;1.40;;;;;;;30.29;34.76;98195.44;5020251;28;20045;-86
2022/08/03 10:11:43;;;;;;;1.83;1.73;;;;;;;30.26;33.78;98186.03;5022456;28;20041;-86
2022/08/03 10:14:19;;;;;;;2.22;1.95;;;;;;;30.31;35.67;98168.84;5019627;28;20451;-88
2022/08/03 10:16:48;;;;;;;2.10;1.90;;;;;;;30.38;34.00;98174.53;5017597;28;20559;-87
2022/08/03 10:19:16;;;;;;;1.90;1.80;;;;;;;30.42;33.20;98183.59;5019332;28;20561;-86
2022/08/03 10:22:00;;;;;;;1.48;1.38;;;;;;;30.27;31.98;98173.31;5017139;28;20041;-85
2022/08/03 10:24:29;;;;;;;3.13;1.60;;;;;;;30.25;29.56;98178.25;5021229;28;20045;-84
2022/08/03 10:27:03;;;;;;;1.30;1.20;;;;;;;30.37;30.25;98181.06;5016296;28;20048;-87
2022/08/03 10:29:41;;;;;;;1.80;1.40;;;;;;;30.47;30.19;98163.63;4997906;28;20052;-85
2022/08/03 10:32:56;;;;;;;1.50;1.40;;;;;;;30.52;30.20;98164.22;5020569;28;20069;-89
2022/08/03 10:35:26;;;;;;;1.50;1.40;;;;;;;30.62;32.54;98154.94;5019607;28;20132;-88
2022/08/03 10:38:05;;;;;;;2.33;1.30;;;;;;;30.81;31.48;98160.72;5006237;28;20394;-85
2022/08/03 10:40:37;;;;;;;1.70;1.60;;;;;;;30.87;29.38;98156.69;5019285;28;20037;-86
2022/08/03 10:43:39;;;;;;;1.63;1.52;;;;;;;31.03;29.51;98159.59;5020374;28;20488;-86
2022/08/03 10:46:07;;;;;;;1.80;1.70;;;;;;;31.10;30.70;98159.84;5021151;28;20050;-82
2022/08/03 10:48:36;;;;;;;1.80;1.70;;;;;;;31.23;31.03;98140.91;5024395;28;20127;-84
2022/08/03 10:51:05;;;;;;;2.17;2.08;;;;;;;31.43;30.92;98157.16;5023402;28;20042;-85
2022/08/03 10:53:42;;;;;;;1.67;1.50;;;;;;;31.35;29.11;98154.53;5021702;28;20053;-86
2022/08/03 10:59:44;;;;;;;1.75;1.65;;;;;;;31.34;31.15;98148.31;5012794;28;20077;-84
2022/08/03 11:02:14;;;;;;;1.80;1.70;;;;;;;31.30;30.59;98138.47;5019668;28;20050;-84
2022/08/03 11:04:43;;;;;;;2.28;1.60;;;;;;;31.55;31.96;98153.69;5020168;28;20547;-83
2022/08/03 11:07:21;;;;;;;2.22;2.03;;;;;;;31.53;28.45;98155.13;5007628;28;20053;-85
2022/08/03 11:09:57;;;;;;;2.00;1.88;;;;;;;31.62;30.41;98142.28;5004922;28;20417;-88
2022/08/03 11:12:32;;;;;;;2.78;2.28;;;;;;;31.50;27.67;98134.94;5013997;28;20056;-85
2022/08/03 11:15:05;;;;;;;2.05;1.92;;;;;;;31.61;27.81;98136.09;5018039;28;20468;-84
2022/08/03 11:17:34;;;;;;;2.60;1.95;;;;;;;31.77;30.01;98138.91;5025532;28;20052;-84
2022/08/03 11:20:46;;;;;;;2.05;1.80;;;;;;;31.91;28.75;98133.19;5011111;28;20041;-86
2022/08/03 11:23:47;;;;;;;1.80;1.70;;;;;;;31.81;28.51;98129.00;5022647;28;20045;-82
2022/08/03 11:26:33;;;;;;;1.67;1.58;;;;;;;31.91;29.30;98127.78;5008662;28;20137;-84
2022/08/03 11:29:29;;;;;;;1.83;1.70;;;;;;;31.95;27.90;98120.53;5003595;28;20037;-85
2022/08/03 11:31:56;;;;;;;2.17;2.08;;;;;;;32.08;28.34;98127.53;5013181;28;20041;-82
2022/08/03 11:34:24;;;;;;;2.85;1.73;;;;;;;32.05;27.29;98109.22;4997951;28;20140;-85
2022/08/03 11:37:23;;;;;;;1.60;1.50;;;;;;;32.24;27.29;98117.56;5004236;28;20057;-85
2022/08/03 11:39:56;;;;;;;1.98;1.80;;;;;;;32.06;27.11;98118.16;5005613;28;20052;-86
2022/08/03 11:42:24;;;;;;;2.05;1.65;;;;;;;32.03;27.39;98114.22;5047401;28;20048;-84
2022/08/03 11:44:56;;;;;;;1.80;1.70;;;;;;;32.20;28.03;98110.44;5022987;28;20077;-85
2022/08/03 11:47:26;;;;;;;2.55;1.90;;;;;;;32.42;27.03;98115.41;5016541;28;20052;-83
2022/08/03 11:50:00;;;;;;;1.50;1.40;;;;;;;32.38;26.79;98100.16;5017827;28;20038;-88
2022/08/03 11:52:39;;;;;;;1.33;1.25;;;;;;;32.58;27.00;98103.84;5020553;28;20049;-82
2022/08/03 11:55:15;;;;;;;2.03;1.60;;;;;;;32.57;27.16;98102.25;5020254;28;20046;-83
2022/08/03 11:57:44;;;;;;;1.60;1.50;;;;;;;32.71;24.83;98095.31;5021410;28;20081;-84
2022/08/03 12:00:32;;;;;;;1.42;1.33;;;;;;;32.82;26.63;98102.97;5026264;28;20055;-84
2022/08/03 12:03:05;;;;;;;1.58;1.48;;;;;;;32.56;23.75;98098.75;5017437;28;20038;-83
2022/08/03 12:05:41;;;;;;;1.60;1.50;;;;;;;32.61;25.12;98101.22;5020139;28;20076;-85
2022/08/03 12:08:40;;;;;;;1.92;1.65;;;;;;;32.49;25.67;98088.47;4991421;28;20046;-86
2022/08/03 12:11:13;;;;;;;1.70;1.60;;;;;;;32.44;23.37;98082.50;4987715;28;20057;-85
2022/08/03 12:13:47;;;;;;;1.33;1.23;;;;;;;32.60;24.12;98077.91;4997128;28;20085;-85
2022/08/03 12:16:34;;;;;;;1.40;1.30;;;;;;;32.82;24.53;98079.31;5022044;28;20550;-84